createdAt,value
2022-12-16T09:14:28.799Z,5.10
2022-12-16T09:17:51.885Z,5.12
2022-12-16T09:21:14.613Z,5.08
2022-12-16T09:24:36.350Z,5.03
2022-12-16T09:27:58.603Z,5.10
2022-12-16T09:31:20.017Z,5.05
2022-12-16T09:34:40.902Z,4.98
2022-12-16T09:38:15.455Z,4.76
2022-12-16T09:42:25.305Z,4.82
2022-12-16T09:46:29.296Z,4.89
2022-12-16T09:50:24.210Z,4.69
2022-12-16T09:53:46.803Z,5.17
2022-12-16T09:57:07.954Z,5.60
2022-12-16T10:00:45.260Z,5.90
2022-12-16T10:04:09.610Z,5.85
2022-12-16T10:07:39.499Z,5.65
2022-12-16T10:11:14.686Z,5.56
2022-12-16T10:14:49.172Z,5.67
2022-12-16T10:18:10.019Z,5.56
2022-12-16T10:21:40.057Z,5.16
2022-12-16T10:25:12.230Z,5.13
2022-12-16T10:28:36.227Z,5.20
2022-12-16T10:31:58.238Z,5.39
2022-12-16T10:35:22.286Z,5.61
2022-12-16T10:39:02.106Z,5.63
2022-12-16T10:42:25.806Z,5.62
2022-12-16T10:45:53.284Z,5.73
2022-12-16T10:49:14.469Z,5.83
2022-12-16T10:52:36.335Z,5.74
2022-12-16T10:56:03.717Z,5.58
2022-12-16T10:59:27.941Z,5.43
2022-12-16T11:03:00.881Z,5.42
2022-12-16T11:06:22.374Z,5.27
2022-12-16T11:09:54.985Z,5.20
2022-12-16T11:13:56.545Z,5.16
2022-12-16T11:17:33.450Z,5.13
2022-12-16T11:20:56.038Z,5.17
2022-12-16T11:24:32.119Z,5.14
2022-12-16T11:27:56.152Z,5.12
2022-12-16T11:31:32.884Z,5.17
2022-12-16T11:34:55.188Z,5.09
2022-12-16T11:38:39.508Z,5.16
2022-12-16T11:42:04.733Z,5.11
2022-12-16T11:45:35.377Z,4.93
2022-12-16T11:49:18.253Z,4.75
2022-12-16T11:52:41.805Z,4.88
2022-12-16T11:56:14.152Z,4.65
2022-12-16T11:59:42.861Z,4.61
2022-12-16T12:03:29.497Z,4.61
2022-12-16T12:06:59.991Z,4.71
2022-12-16T12:10:38.195Z,4.67
2022-12-16T12:14:16.106Z,4.68
2022-12-16T12:17:52.050Z,4.73
2022-12-16T12:21:32.272Z,4.83
2022-12-16T12:25:02.417Z,4.75
2022-12-16T12:28:52.012Z,4.73
2022-12-16T12:32:42.736Z,4.63
2022-12-16T12:36:41.678Z,4.57
2022-12-16T12:40:09.304Z,4.64
2022-12-16T12:44:00.156Z,4.76
2022-12-16T12:47:25.455Z,4.95
2022-12-16T12:51:12.139Z,5.07
2022-12-16T12:54:39.056Z,5.32
2022-12-16T12:58:04.621Z,5.40
2022-12-16T13:01:28.572Z,5.14
2022-12-16T13:04:51.704Z,4.98
2022-12-16T13:08:32.085Z,4.81
2022-12-16T13:11:54.905Z,4.73
2022-12-16T13:15:18.563Z,4.63
2022-12-16T13:18:45.544Z,4.57
2022-12-16T13:22:07.231Z,4.61
2022-12-16T13:25:57.618Z,4.69
2022-12-16T13:29:36.772Z,4.86
2022-12-16T13:32:58.498Z,4.78
2022-12-16T13:36:19.867Z,4.65
2022-12-16T13:39:46.229Z,4.60
2022-12-16T13:43:10.269Z,4.50
2022-12-16T13:46:33.989Z,4.55
2022-12-16T13:49:54.772Z,4.47
2022-12-16T13:53:21.794Z,4.51
2022-12-16T13:56:50.394Z,4.65
2022-12-16T14:00:11.684Z,4.54
2022-12-16T14:03:57.537Z,4.59
2022-12-16T14:07:24.425Z,4.64
2022-12-16T14:10:48.625Z,4.70
2022-12-16T14:14:22.048Z,4.73
2022-12-16T14:18:00.256Z,4.73
2022-12-16T14:21:23.523Z,4.64
2022-12-16T14:24:46.453Z,4.63
2022-12-16T14:28:07.846Z,4.68
2022-12-16T14:31:37.394Z,4.57
2022-12-16T14:34:59.939Z,4.51
2022-12-16T14:38:40.682Z,4.65
2022-12-16T14:42:09.737Z,4.51
2022-12-16T14:45:52.972Z,4.51
2022-12-16T14:49:15.030Z,4.45
2022-12-16T14:52:36.059Z,4.44
2022-12-16T14:55:57.015Z,4.38
2022-12-16T14:59:38.286Z,4.43
2022-12-16T15:03:05.337Z,4.47
2022-12-16T15:06:42.297Z,4.42
2022-12-16T15:10:06.518Z,4.38
2022-12-16T15:13:34.942Z,4.40
2022-12-16T15:16:57.221Z,4.39
2022-12-16T15:20:17.704Z,4.42
2022-12-16T15:23:41.732Z,4.36
2022-12-16T15:27:02.572Z,4.32
2022-12-16T15:30:59.572Z,4.29
2022-12-16T15:34:36.824Z,4.26
2022-12-16T15:38:04.509Z,4.30
2022-12-16T15:41:39.310Z,4.27
2022-12-16T15:45:08.409Z,4.28
2022-12-16T15:48:37.339Z,4.33
2022-12-16T15:52:05.418Z,4.37
2022-12-16T15:56:08.936Z,4.29
2022-12-16T15:59:54.562Z,4.24
2022-12-16T16:03:15.446Z,4.24
2022-12-16T16:06:42.310Z,4.26
2022-12-16T16:10:03.172Z,4.38
2022-12-16T16:13:24.939Z,4.35
2022-12-16T16:16:45.639Z,4.30
2022-12-16T16:20:06.801Z,4.21
2022-12-16T16:23:29.462Z,4.07
2022-12-16T16:26:50.586Z,3.93
2022-12-16T16:30:11.548Z,3.86
2022-12-16T16:33:33.077Z,3.73
2022-12-16T16:36:54.455Z,3.76
2022-12-16T16:40:15.597Z,3.73
2022-12-16T16:43:37.559Z,3.69
2022-12-16T16:47:15.962Z,3.60
2022-12-16T16:50:36.815Z,3.54
2022-12-16T16:53:58.138Z,3.60
2022-12-16T16:57:20.470Z,3.45
2022-12-16T17:00:42.154Z,3.28
2022-12-16T17:04:03.155Z,3.19
2022-12-16T17:07:24.178Z,3.17
2022-12-16T17:10:45.195Z,3.12
2022-12-16T17:14:06.079Z,3.11
2022-12-16T17:17:27.877Z,3.08
2022-12-16T17:20:49.174Z,3.03
2022-12-16T17:24:10.416Z,3.02
2022-12-16T17:27:42.623Z,2.97
2022-12-16T17:31:03.794Z,3.02
2022-12-16T17:34:25.194Z,2.99
2022-12-16T17:37:45.914Z,2.99
2022-12-16T17:41:10.611Z,3.01
2022-12-16T17:44:32.025Z,3.02
2022-12-16T17:47:53.101Z,2.93
2022-12-16T17:51:13.960Z,2.95
2022-12-16T17:54:34.998Z,2.86
2022-12-16T17:57:56.160Z,2.90
2022-12-16T18:01:22.778Z,2.87
2022-12-16T18:04:46.666Z,2.81
2022-12-16T18:08:08.040Z,2.81
2022-12-16T18:11:29.482Z,2.80
2022-12-16T18:14:50.024Z,2.78
2022-12-16T18:18:11.110Z,2.81
2022-12-16T18:21:32.971Z,2.72
2022-12-16T18:24:55.684Z,2.69
2022-12-16T18:28:16.984Z,2.72
2022-12-16T18:31:37.888Z,2.67
2022-12-16T18:34:58.721Z,2.62
2022-12-16T18:38:19.599Z,2.74
2022-12-16T18:41:41.338Z,2.66
2022-12-16T18:45:02.198Z,2.64
2022-12-16T18:48:22.941Z,2.64
2022-12-16T18:51:43.725Z,2.67
2022-12-16T18:55:04.540Z,2.65
2022-12-16T18:58:50.380Z,2.69
2022-12-16T19:02:06.061Z,2.66
2022-12-16T19:05:27.573Z,2.70
2022-12-16T19:08:49.095Z,2.67
2022-12-16T19:12:09.971Z,2.75
2022-12-16T19:15:30.814Z,2.79
2022-12-16T19:18:52.256Z,2.82
2022-12-16T19:22:16.656Z,2.72
2022-12-16T19:25:40.898Z,2.70
2022-12-16T19:29:01.665Z,2.71
2022-12-16T19:32:22.814Z,2.75
2022-12-16T19:35:43.541Z,2.71
2022-12-16T19:39:04.350Z,2.68
2022-12-16T19:42:25.249Z,2.62
2022-12-16T19:45:46.284Z,2.61
2022-12-16T19:49:07.363Z,2.69
2022-12-16T19:52:29.864Z,2.69
2022-12-16T19:55:53.053Z,2.61
2022-12-16T19:59:14.394Z,2.65
2022-12-16T20:02:35.178Z,2.69
2022-12-16T20:05:56.145Z,2.78
2022-12-16T20:09:33.715Z,2.77
2022-12-16T20:12:56.113Z,2.82
2022-12-16T20:16:24.841Z,2.85
2022-12-16T20:19:46.152Z,2.73
2022-12-16T20:23:06.884Z,2.66
2022-12-16T20:26:28.013Z,2.59
2022-12-16T20:29:48.749Z,2.64
2022-12-16T20:33:09.792Z,2.48
2022-12-16T20:36:30.748Z,2.46
2022-12-16T20:39:56.380Z,2.39
2022-12-16T20:43:17.723Z,2.34
2022-12-16T20:46:38.653Z,2.35
2022-12-16T20:49:59.364Z,2.34
2022-12-16T20:53:20.448Z,2.32
2022-12-16T20:56:41.072Z,2.31
2022-12-16T21:00:02.070Z,2.36
2022-12-16T21:03:27.364Z,2.41
2022-12-16T21:06:48.495Z,2.33
2022-12-16T21:10:09.453Z,2.35
2022-12-16T21:13:33.849Z,2.28
2022-12-16T21:16:55.950Z,2.30
2022-12-16T21:20:17.048Z,2.30
2022-12-16T21:23:38.412Z,2.20
2022-12-16T21:26:59.624Z,2.11
2022-12-16T21:30:20.378Z,2.14
2022-12-16T21:33:41.601Z,2.03
2022-12-16T21:37:02.508Z,1.98
2022-12-16T21:40:24.900Z,1.99
2022-12-16T21:43:45.636Z,2.04
2022-12-16T21:47:06.577Z,2.02
2022-12-16T21:50:28.569Z,1.97
2022-12-16T21:53:49.811Z,1.96
2022-12-16T21:57:10.450Z,2.02
2022-12-16T22:00:31.615Z,2.06
2022-12-16T22:03:54.136Z,2.06
2022-12-16T22:07:14.843Z,1.93
2022-12-16T22:10:35.591Z,1.86
2022-12-16T22:13:56.501Z,1.87
2022-12-16T22:17:17.542Z,1.65
2022-12-16T22:20:38.498Z,1.71
2022-12-16T22:23:59.740Z,1.73
2022-12-16T22:27:20.494Z,1.70
2022-12-16T22:30:41.875Z,1.67
2022-12-16T22:34:03.088Z,1.66
2022-12-16T22:37:24.044Z,1.67
2022-12-16T22:40:44.618Z,1.65
2022-12-16T22:44:05.557Z,1.73
2022-12-16T22:47:26.545Z,1.72
2022-12-16T22:50:47.329Z,1.77
2022-12-16T22:54:08.170Z,1.82
2022-12-16T22:57:29.535Z,1.71
2022-12-16T23:00:50.421Z,1.69
2022-12-16T23:04:11.601Z,1.73
2022-12-16T23:07:52.415Z,1.73
2022-12-16T23:11:18.611Z,1.61
2022-12-16T23:18:20.257Z,1.59
2022-12-16T23:21:41.038Z,1.54
2022-12-16T23:25:02.219Z,1.60
2022-12-16T23:28:23.703Z,1.56
2022-12-16T23:31:44.712Z,1.61
2022-12-16T23:35:05.646Z,1.61
2022-12-16T23:38:26.455Z,1.61
2022-12-16T23:41:47.274Z,1.62
2022-12-16T23:45:08.384Z,1.59
2022-12-16T23:48:30.352Z,1.51
2022-12-16T23:51:51.352Z,1.44
2022-12-16T23:55:12.909Z,1.44
2022-12-16T23:58:34.091Z,1.40
